createdAt,value
2018-05-10T00:02:02.683Z,17.00
2018-05-10T00:04:28.919Z,16.90
2018-05-10T00:06:55.148Z,16.90
2018-05-10T00:09:21.367Z,16.90
2018-05-10T00:11:48.324Z,16.80
2018-05-10T00:14:14.542Z,16.80
2018-05-10T00:16:41.486Z,16.20
2018-05-10T00:19:07.742Z,16.20
2018-05-10T00:21:33.988Z,15.80
2018-05-10T00:24:00.239Z,15.50
2018-05-10T00:26:27.270Z,15.30
2018-05-10T00:28:53.514Z,15.30
2018-05-10T00:31:19.729Z,15.40
2018-05-10T00:33:45.956Z,15.50
2018-05-10T00:36:12.156Z,15.70
2018-05-10T00:38:38.396Z,15.70
2018-05-10T00:41:04.627Z,15.90
2018-05-10T00:43:30.873Z,16.00
2018-05-10T00:45:57.153Z,16.10
2018-05-10T00:48:23.389Z,16.20
2018-05-10T00:50:49.604Z,16.00
2018-05-10T00:53:15.817Z,15.70
2018-05-10T00:55:42.805Z,15.60
2018-05-10T00:58:09.011Z,15.60
2018-05-10T01:00:35.224Z,15.70
2018-05-10T01:03:01.445Z,15.80
2018-05-10T01:05:28.420Z,15.70
2018-05-10T01:07:54.643Z,15.70
2018-05-10T01:10:20.856Z,15.60
2018-05-10T01:12:47.835Z,15.80
2018-05-10T01:15:14.016Z,15.70
2018-05-10T01:17:40.957Z,16.00
2018-05-10T01:20:07.156Z,16.00
2018-05-10T01:22:33.404Z,16.20
2018-05-10T01:24:59.633Z,16.20
2018-05-10T01:27:25.807Z,16.20
2018-05-10T01:29:52.003Z,16.10
2018-05-10T01:32:18.995Z,15.70
2018-05-10T01:34:57.458Z,15.60
2018-05-10T01:37:24.408Z,15.10
2018-05-10T01:39:51.403Z,14.90
2018-05-10T01:42:17.627Z,14.80
2018-05-10T01:44:54.552Z,14.80
2018-05-10T01:47:20.764Z,14.60
2018-05-10T01:49:46.962Z,14.60
2018-05-10T01:52:13.182Z,14.60
2018-05-10T01:54:39.437Z,14.70
2018-05-10T01:57:05.672Z,15.00
2018-05-10T01:59:31.880Z,15.10
2018-05-10T02:01:58.100Z,15.30
2018-05-10T02:04:24.393Z,15.50
2018-05-10T02:06:51.347Z,15.60
2018-05-10T02:09:18.320Z,15.60
2018-05-10T02:11:44.545Z,15.50
2018-05-10T02:14:10.841Z,15.60
2018-05-10T02:16:37.793Z,15.30
2018-05-10T02:19:04.034Z,15.20
2018-05-10T02:21:30.246Z,15.00
2018-05-10T02:23:57.234Z,14.50
2018-05-10T02:26:23.460Z,14.50
2018-05-10T02:28:49.710Z,14.70
2018-05-10T02:31:15.936Z,14.70
2018-05-10T02:33:42.120Z,14.90
2018-05-10T02:36:08.325Z,14.90
2018-05-10T02:38:34.554Z,15.00
2018-05-10T02:41:00.800Z,15.00
2018-05-10T02:43:27.057Z,15.20
2018-05-10T02:45:53.275Z,15.20
2018-05-10T02:48:19.487Z,15.40
2018-05-10T02:50:45.762Z,15.50
2018-05-10T02:53:11.981Z,15.50
2018-05-10T02:55:38.195Z,15.60
2018-05-10T02:58:04.467Z,15.60
2018-05-10T03:00:30.684Z,15.70
2018-05-10T03:02:56.933Z,15.70
2018-05-10T03:05:23.872Z,15.80
2018-05-10T03:07:50.836Z,15.70
2018-05-10T03:10:17.076Z,15.70
2018-05-10T03:12:43.322Z,15.70
2018-05-10T03:15:09.546Z,15.60
2018-05-10T03:17:35.740Z,15.40
2018-05-10T03:20:02.671Z,15.50
2018-05-10T03:22:28.917Z,15.50
2018-05-10T03:24:55.155Z,15.60
2018-05-10T03:27:21.340Z,15.70
2018-05-10T03:29:47.568Z,15.70
2018-05-10T03:32:14.593Z,15.80
2018-05-10T03:34:40.834Z,15.70
2018-05-10T03:37:07.058Z,15.80
2018-05-10T03:39:33.271Z,15.80
2018-05-10T03:41:59.528Z,15.80
2018-05-10T03:44:25.823Z,15.90
2018-05-10T03:46:52.018Z,15.90
2018-05-10T03:49:19.013Z,15.90
2018-05-10T03:51:45.227Z,15.80
2018-05-10T03:54:11.426Z,15.90
2018-05-10T03:56:37.649Z,15.90
2018-05-10T03:59:03.910Z,15.90
2018-05-10T04:01:30.094Z,15.90
2018-05-10T04:07:21.115Z,16.00
2018-05-10T04:10:00.261Z,16.00
2018-05-10T04:12:26.490Z,15.90
2018-05-10T04:14:53.447Z,16.00
2018-05-10T04:17:19.686Z,16.00
2018-05-10T04:19:45.897Z,16.00
2018-05-10T04:22:12.066Z,16.10
2018-05-10T04:24:38.299Z,16.10
2018-05-10T04:27:04.544Z,16.10
2018-05-10T04:29:30.735Z,16.00
2018-05-10T04:31:56.973Z,16.10
2018-05-10T04:34:23.164Z,16.00
2018-05-10T04:36:49.373Z,16.00
2018-05-10T04:39:16.346Z,15.80
2018-05-10T04:41:42.587Z,15.80
2018-05-10T04:44:08.777Z,15.80
2018-05-10T04:46:35.804Z,15.50
2018-05-10T04:49:02.026Z,15.50
2018-05-10T04:51:28.238Z,15.40
2018-05-10T04:53:54.440Z,15.30
2018-05-10T04:56:20.674Z,15.10
2018-05-10T04:58:46.886Z,15.10
2018-05-10T05:01:13.231Z,15.00
2018-05-10T05:03:39.490Z,14.90
2018-05-10T05:06:05.724Z,14.80
2018-05-10T05:08:31.924Z,14.70
2018-05-10T05:10:58.149Z,14.60
2018-05-10T05:13:24.370Z,14.50
2018-05-10T05:15:50.608Z,14.30
2018-05-10T05:18:16.835Z,14.40
2018-05-10T05:20:43.007Z,14.50
2018-05-10T05:23:09.202Z,14.40
2018-05-10T05:25:35.443Z,14.40
2018-05-10T05:28:01.665Z,14.50
2018-05-10T05:30:27.907Z,14.60
2018-05-10T05:32:54.128Z,14.60
2018-05-10T05:35:20.324Z,14.60
2018-05-10T05:37:46.582Z,14.60
2018-05-10T05:40:12.807Z,14.70
2018-05-10T05:42:39.028Z,14.70
2018-05-10T05:45:05.320Z,14.80
2018-05-10T05:47:31.577Z,14.80
2018-05-10T05:49:57.794Z,14.80
2018-05-10T05:52:24.064Z,14.80
2018-05-10T05:54:51.064Z,14.90
2018-05-10T05:57:17.296Z,14.80
2018-05-10T05:59:43.547Z,14.90
2018-05-10T06:02:09.803Z,14.90
2018-05-10T06:04:37.852Z,15.00
2018-05-10T06:07:04.099Z,14.90
2018-05-10T06:09:31.007Z,15.00
2018-05-10T06:11:57.239Z,14.90
2018-05-10T06:14:23.481Z,15.00
2018-05-10T06:16:49.752Z,15.00
2018-05-10T06:19:15.968Z,14.90
2018-05-10T06:21:42.919Z,14.90
2018-05-10T06:24:09.878Z,14.90
2018-05-10T06:26:36.211Z,14.80
2018-05-10T06:29:02.373Z,14.90
2018-05-10T06:31:28.559Z,14.90
2018-05-10T06:33:54.870Z,14.90
2018-05-10T06:36:21.067Z,14.90
2018-05-10T06:38:47.278Z,14.90
2018-05-10T06:41:13.562Z,14.90
2018-05-10T06:43:39.728Z,14.90
2018-05-10T06:46:05.949Z,14.90
2018-05-10T06:48:32.237Z,14.90
2018-05-10T06:50:58.416Z,14.90
2018-05-10T06:53:24.693Z,14.90
2018-05-10T06:55:50.899Z,14.90
2018-05-10T06:58:18.157Z,14.90
2018-05-10T07:00:44.439Z,14.90
2018-05-10T07:03:10.676Z,14.90
2018-05-10T07:05:36.944Z,14.90
2018-05-10T07:08:03.164Z,14.90
2018-05-10T07:10:29.363Z,14.90
2018-05-10T07:12:55.604Z,14.90
2018-05-10T07:15:21.816Z,14.80
2018-05-10T07:17:48.007Z,14.80
2018-05-10T07:20:14.956Z,14.70
2018-05-10T07:22:41.202Z,14.70
2018-05-10T07:25:07.449Z,14.80
2018-05-10T07:27:33.659Z,14.70
2018-05-10T07:29:59.940Z,14.70
2018-05-10T07:32:26.167Z,14.70
2018-05-10T07:34:53.144Z,14.60
2018-05-10T07:37:20.077Z,14.60
2018-05-10T07:39:47.100Z,14.50
2018-05-10T07:42:13.308Z,14.50
2018-05-10T07:44:39.541Z,14.50
2018-05-10T07:47:05.748Z,14.40
2018-05-10T07:49:31.943Z,14.40
2018-05-10T07:51:58.910Z,14.30
2018-05-10T07:54:25.103Z,14.30
2018-05-10T07:56:52.109Z,14.30
2018-05-10T07:59:18.357Z,14.20
2018-05-10T08:01:44.594Z,14.20
2018-05-10T08:04:10.810Z,14.20
2018-05-10T08:06:37.065Z,14.20
2018-05-10T08:09:04.079Z,14.20
2018-05-10T08:11:30.275Z,14.20
2018-05-10T08:13:56.502Z,14.30
2018-05-10T08:16:22.709Z,14.30
2018-05-10T08:18:49.015Z,14.30
2018-05-10T08:21:15.184Z,14.30
2018-05-10T08:23:48.294Z,14.30
2018-05-10T08:26:14.553Z,14.30
2018-05-10T08:28:40.750Z,14.30
2018-05-10T08:31:06.996Z,14.40
2018-05-10T08:33:33.195Z,14.40
2018-05-10T08:35:59.452Z,14.30
2018-05-10T08:38:26.765Z,14.30
2018-05-10T08:40:53.038Z,14.30
2018-05-10T08:43:19.280Z,14.30
2018-05-10T08:45:45.512Z,14.30
2018-05-10T08:48:11.707Z,14.30
2018-05-10T08:50:37.883Z,14.30
2018-05-10T08:53:04.870Z,14.30
2018-05-10T08:55:31.110Z,14.20
2018-05-10T08:57:57.366Z,14.30
2018-05-10T09:00:23.567Z,14.30
2018-05-10T09:02:49.767Z,14.30
2018-05-10T09:05:16.016Z,14.30
2018-05-10T09:07:42.196Z,14.30
2018-05-10T09:10:09.106Z,14.20
2018-05-10T09:12:35.319Z,14.20
2018-05-10T09:15:01.537Z,14.20
2018-05-10T09:17:27.764Z,14.20
2018-05-10T09:19:54.041Z,14.20
2018-05-10T09:22:20.992Z,14.20
2018-05-10T09:24:47.931Z,14.20
2018-05-10T09:27:14.901Z,14.10
2018-05-10T09:29:41.093Z,14.10
2018-05-10T09:32:07.308Z,14.20
2018-05-10T09:34:33.552Z,14.20
2018-05-10T09:36:59.743Z,14.20
2018-05-10T09:39:25.982Z,14.30
2018-05-10T09:41:52.205Z,14.30
2018-05-10T09:44:18.384Z,14.30
2018-05-10T09:46:45.356Z,14.40
2018-05-10T09:49:11.566Z,14.40
2018-05-10T09:51:37.778Z,14.40
2018-05-10T09:54:03.979Z,14.50
2018-05-10T09:56:30.185Z,14.50
2018-05-10T09:58:56.405Z,14.50
2018-05-10T10:01:22.667Z,14.60
2018-05-10T10:03:48.886Z,14.50
2018-05-10T10:06:15.204Z,14.50
2018-05-10T10:08:42.071Z,14.40
2018-05-10T10:11:08.238Z,14.30
2018-05-10T10:13:34.503Z,14.30
2018-05-10T10:16:00.686Z,14.30
2018-05-10T10:18:26.886Z,14.30
2018-05-10T10:20:53.803Z,14.40
2018-05-10T10:23:20.197Z,14.30
2018-05-10T10:25:46.368Z,14.40
2018-05-10T10:28:12.570Z,14.30
2018-05-10T10:30:38.796Z,14.20
2018-05-10T10:33:05.006Z,14.10
2018-05-10T10:35:31.223Z,14.20
2018-05-10T10:37:57.464Z,14.20
2018-05-10T10:40:23.693Z,14.20
2018-05-10T10:42:49.944Z,14.20
2018-05-10T10:45:16.182Z,14.20
2018-05-10T10:47:44.483Z,14.20
2018-05-10T10:50:10.690Z,14.30
2018-05-10T10:52:36.918Z,14.30
2018-05-10T10:55:03.124Z,14.40
2018-05-10T10:57:29.346Z,14.30
2018-05-10T10:59:55.597Z,14.20
2018-05-10T11:02:21.749Z,14.20
2018-05-10T11:04:47.905Z,14.10
2018-05-10T11:07:14.133Z,14.00
2018-05-10T11:09:40.348Z,13.90
2018-05-10T11:12:07.320Z,13.80
2018-05-10T11:14:33.548Z,13.70
2018-05-10T11:16:59.769Z,13.80
2018-05-10T11:19:25.982Z,13.70
2018-05-10T11:21:52.932Z,13.70
2018-05-10T11:24:19.157Z,13.70
2018-05-10T11:26:45.383Z,13.60
2018-05-10T11:29:12.376Z,13.50
2018-05-10T11:31:38.596Z,13.50
2018-05-10T11:34:04.823Z,13.60
2018-05-10T11:36:31.012Z,13.60
2018-05-10T11:38:59.038Z,13.60
2018-05-10T11:41:25.302Z,13.60
2018-05-10T11:43:52.215Z,13.60
2018-05-10T11:46:18.460Z,13.60
2018-05-10T11:48:44.737Z,13.50
2018-05-10T11:51:10.955Z,13.50
2018-05-10T11:53:37.184Z,13.50
2018-05-10T11:56:03.428Z,13.40
2018-05-10T11:58:29.638Z,13.30
2018-05-10T12:00:55.819Z,13.20
2018-05-10T12:03:22.044Z,13.20
2018-05-10T12:05:48.273Z,13.10
2018-05-10T12:08:16.576Z,13.00
2018-05-10T12:10:42.768Z,13.10
2018-05-10T12:13:09.003Z,13.00
2018-05-10T12:15:35.281Z,13.00
2018-05-10T12:18:01.469Z,12.90
2018-05-10T12:20:28.791Z,12.90
2018-05-10T12:22:55.666Z,13.10
2018-05-10T12:25:21.907Z,13.00
2018-05-10T12:27:48.872Z,13.00
2018-05-10T12:30:15.095Z,12.90
2018-05-10T12:32:42.082Z,12.80
2018-05-10T12:35:08.308Z,12.80
2018-05-10T12:37:34.576Z,12.80
2018-05-10T12:40:00.764Z,12.70
2018-05-10T12:42:27.004Z,12.70
2018-05-10T12:44:53.210Z,12.60
2018-05-10T12:47:19.448Z,12.50
2018-05-10T12:49:45.700Z,12.30
2018-05-10T12:52:11.912Z,12.30
2018-05-10T12:54:38.135Z,12.30
2018-05-10T12:57:04.360Z,12.40
2018-05-10T12:59:30.580Z,12.50
2018-05-10T13:01:56.800Z,12.40
2018-05-10T13:04:22.974Z,12.50
2018-05-10T13:06:49.238Z,12.70
2018-05-10T13:09:16.257Z,12.60
2018-05-10T13:11:42.473Z,12.50
2018-05-10T13:14:08.715Z,12.70
2018-05-10T13:16:35.677Z,12.90
2018-05-10T13:19:02.651Z,12.80
2018-05-10T13:21:28.877Z,12.80
2018-05-10T13:23:55.108Z,12.90
2018-05-10T13:26:21.418Z,13.00
2018-05-10T13:28:47.670Z,13.10
2018-05-10T13:31:14.583Z,13.20
2018-05-10T13:33:41.519Z,13.20
2018-05-10T13:36:08.509Z,13.30
2018-05-10T13:38:46.300Z,13.20
2018-05-10T13:41:12.507Z,13.30
2018-05-10T13:43:38.783Z,13.30
2018-05-10T13:46:05.029Z,13.40
2018-05-10T13:48:31.244Z,13.40
2018-05-10T13:50:57.488Z,13.40
2018-05-10T13:53:23.695Z,13.40
2018-05-10T13:55:49.902Z,13.40
2018-05-10T13:58:16.148Z,13.40
2018-05-10T14:00:42.372Z,13.50
2018-05-10T14:03:08.601Z,13.50
2018-05-10T14:05:34.838Z,13.50
2018-05-10T14:08:01.074Z,13.50
2018-05-10T14:10:27.248Z,13.40
2018-05-10T14:12:53.531Z,13.20
2018-05-10T14:15:19.759Z,13.20
2018-05-10T14:17:45.974Z,13.30
2018-05-10T14:20:12.257Z,13.40
2018-05-10T14:22:38.553Z,13.40
2018-05-10T14:25:04.799Z,13.20
2018-05-10T14:27:31.072Z,13.20
2018-05-10T14:29:57.327Z,13.20
2018-05-10T14:32:23.578Z,13.20
2018-05-10T14:34:49.820Z,13.30
2018-05-10T14:37:16.778Z,13.40
2018-05-10T14:39:42.986Z,13.40
2018-05-10T14:42:09.237Z,13.40
2018-05-10T14:44:35.437Z,13.40
2018-05-10T14:47:01.731Z,13.50
2018-05-10T14:49:27.965Z,13.50
2018-05-10T14:51:54.231Z,13.50
2018-05-10T14:54:21.234Z,13.60
2018-05-10T14:56:47.455Z,13.60
2018-05-10T14:59:13.663Z,13.60
2018-05-10T15:01:39.891Z,13.60
2018-05-10T15:04:06.097Z,13.70
2018-05-10T15:06:32.303Z,13.70
2018-05-10T15:08:58.523Z,13.80
2018-05-10T15:11:24.764Z,13.80
2018-05-10T15:13:50.981Z,13.80
2018-05-10T15:16:17.193Z,13.80
2018-05-10T15:18:43.416Z,13.80
2018-05-10T15:21:09.665Z,13.90
2018-05-10T15:23:35.963Z,13.80
2018-05-10T15:26:02.116Z,13.90
2018-05-10T15:28:28.397Z,13.90
2018-05-10T15:30:54.617Z,13.90
2018-05-10T15:33:20.860Z,13.90
2018-05-10T15:35:47.166Z,14.00
2018-05-10T15:38:13.424Z,14.00
2018-05-10T15:40:39.686Z,14.10
2018-05-10T15:43:05.930Z,14.10
2018-05-10T15:45:32.120Z,14.10
2018-05-10T15:47:58.323Z,14.10
2018-05-10T15:50:24.563Z,14.20
2018-05-10T15:52:50.795Z,14.20
2018-05-10T15:55:17.022Z,14.20
2018-05-10T15:57:43.258Z,14.20
2018-05-10T16:00:09.504Z,14.20
2018-05-10T16:02:35.739Z,14.20
2018-05-10T16:05:01.979Z,14.20
2018-05-10T16:07:28.188Z,14.20
2018-05-10T16:09:54.447Z,14.20
2018-05-10T16:12:21.372Z,14.20
2018-05-10T16:14:47.588Z,14.20
2018-05-10T16:17:13.825Z,14.20
2018-05-10T16:19:40.085Z,14.30
2018-05-10T16:22:07.140Z,14.30
2018-05-10T16:24:34.166Z,14.30
2018-05-10T16:27:00.416Z,14.30
2018-05-10T16:29:26.643Z,14.30
2018-05-10T16:31:53.637Z,14.30
2018-05-10T16:34:19.998Z,14.20
2018-05-10T16:36:46.247Z,14.20
2018-05-10T16:39:12.432Z,14.10
2018-05-10T16:41:38.677Z,14.10
2018-05-10T16:44:05.017Z,14.10
2018-05-10T16:46:31.997Z,14.00
2018-05-10T16:48:58.210Z,14.00
2018-05-10T16:51:25.155Z,14.00
2018-05-10T16:53:51.380Z,13.90
2018-05-10T16:56:18.347Z,13.90
2018-05-10T16:58:44.695Z,13.90
2018-05-10T17:01:10.904Z,13.90
2018-05-10T17:03:37.151Z,13.90
2018-05-10T17:06:03.399Z,13.90
2018-05-10T17:08:29.642Z,13.90
2018-05-10T17:10:55.876Z,13.90
2018-05-10T17:13:22.835Z,14.00
2018-05-10T17:15:49.808Z,13.90
2018-05-10T17:18:16.036Z,13.90
2018-05-10T17:20:42.339Z,14.00
2018-05-10T17:23:09.312Z,13.90
2018-05-10T17:25:35.498Z,13.90
2018-05-10T17:28:01.748Z,14.00
2018-05-10T17:30:27.971Z,14.00
2018-05-10T17:32:54.950Z,13.90
2018-05-10T17:35:21.189Z,13.90
2018-05-10T17:37:47.429Z,13.90
2018-05-10T17:40:13.640Z,13.90
2018-05-10T17:42:39.842Z,13.90
2018-05-10T17:45:06.082Z,13.90
2018-05-10T17:47:32.271Z,13.90
2018-05-10T17:49:58.516Z,14.00
2018-05-10T17:52:25.462Z,14.00
2018-05-10T17:54:52.443Z,14.00
2018-05-10T17:57:18.655Z,14.00
2018-05-10T17:59:44.862Z,14.00
2018-05-10T18:02:11.903Z,14.00
2018-05-10T18:04:38.846Z,14.10
2018-05-10T18:07:05.084Z,14.00
2018-05-10T18:09:31.409Z,14.10
2018-05-10T18:11:58.353Z,14.10
2018-05-10T18:14:25.290Z,14.10
2018-05-10T18:16:52.271Z,14.10
2018-05-10T18:19:18.482Z,14.10
2018-05-10T18:21:44.662Z,14.10
2018-05-10T18:24:10.904Z,14.10
2018-05-10T18:26:37.162Z,14.10
2018-05-10T18:29:04.120Z,14.10
2018-05-10T18:31:30.310Z,14.00
2018-05-10T18:33:57.288Z,14.10
2018-05-10T18:36:23.529Z,14.00
2018-05-10T18:38:49.770Z,14.10
2018-05-10T18:41:15.980Z,14.10
2018-05-10T18:43:42.250Z,14.10
2018-05-10T18:46:08.420Z,14.10
2018-05-10T18:48:35.370Z,14.10
2018-05-10T18:51:01.587Z,14.10
2018-05-10T18:53:27.842Z,14.10
2018-05-10T18:55:54.083Z,14.10
2018-05-10T18:58:20.330Z,14.10
2018-05-10T19:00:46.544Z,14.10
2018-05-10T19:03:12.788Z,14.10
2018-05-10T19:05:39.014Z,14.10
2018-05-10T19:08:05.235Z,14.00
2018-05-10T19:10:31.435Z,14.00
2018-05-10T19:12:57.688Z,13.90
2018-05-10T19:15:23.937Z,13.90
2018-05-10T19:17:50.177Z,13.90
2018-05-10T19:20:16.440Z,13.90
2018-05-10T19:22:42.679Z,13.90
2018-05-10T19:25:08.880Z,13.90
2018-05-10T19:27:35.896Z,13.80
2018-05-10T19:30:02.172Z,13.90
2018-05-10T19:32:28.365Z,13.90
2018-05-10T19:34:54.600Z,13.90
2018-05-10T19:37:20.846Z,13.80
2018-05-10T19:39:47.800Z,13.80
2018-05-10T19:42:14.062Z,13.70
2018-05-10T19:44:40.265Z,13.80
2018-05-10T19:47:06.509Z,13.80
2018-05-10T19:49:32.759Z,13.80
2018-05-10T19:51:59.018Z,13.80
2018-05-10T19:54:25.977Z,13.70
2018-05-10T19:56:52.933Z,13.70
2018-05-10T19:59:19.883Z,13.70
2018-05-10T20:01:46.182Z,13.60
2018-05-10T20:04:13.137Z,13.60
2018-05-10T20:06:39.398Z,13.60
2018-05-10T20:09:05.716Z,13.60
2018-05-10T20:11:32.004Z,13.60
2018-05-10T20:13:58.261Z,13.60
2018-05-10T20:16:24.465Z,13.60
2018-05-10T20:18:50.678Z,13.50
2018-05-10T20:21:17.049Z,13.50
2018-05-10T20:23:43.130Z,13.50
2018-05-10T20:26:09.317Z,13.50
2018-05-10T20:28:35.603Z,13.40
2018-05-10T20:31:01.779Z,13.40
2018-05-10T20:33:27.987Z,13.40
2018-05-10T20:35:54.190Z,13.40
2018-05-10T20:38:20.409Z,13.40
2018-05-10T20:40:46.638Z,13.30
2018-05-10T20:43:12.980Z,13.20
2018-05-10T20:45:39.096Z,13.20
2018-05-10T20:48:05.358Z,13.10
2018-05-10T20:50:31.686Z,13.10
2018-05-10T20:52:58.648Z,13.00
2018-05-10T20:55:24.907Z,13.00
2018-05-10T20:57:51.113Z,13.00
2018-05-10T21:00:17.362Z,12.90
2018-05-10T21:02:43.550Z,12.90
2018-05-10T21:05:09.793Z,12.80
2018-05-10T21:07:36.006Z,12.80
2018-05-10T21:10:02.373Z,12.80
2018-05-10T21:12:44.264Z,12.80
2018-05-10T21:15:10.485Z,12.80
2018-05-10T21:17:36.728Z,12.70
2018-05-10T21:20:03.015Z,12.60
2018-05-10T21:22:29.250Z,12.60
2018-05-10T21:24:55.488Z,12.60
2018-05-10T21:27:21.724Z,12.60
2018-05-10T21:29:48.016Z,12.50
2018-05-10T21:32:14.971Z,12.40
2018-05-10T21:34:41.194Z,12.40
2018-05-10T21:37:08.174Z,12.40
2018-05-10T21:39:34.423Z,12.30
2018-05-10T21:42:00.692Z,12.30
2018-05-10T21:44:27.655Z,12.30
2018-05-10T21:46:53.868Z,12.30
2018-05-10T21:49:33.163Z,12.30
2018-05-10T21:51:59.404Z,12.20
2018-05-10T21:54:25.612Z,12.30
2018-05-10T21:56:51.884Z,12.20
2018-05-10T21:59:18.892Z,12.20
2018-05-10T22:01:45.143Z,12.20
2018-05-10T22:04:11.398Z,12.20
2018-05-10T22:06:37.684Z,12.20
2018-05-10T22:09:03.968Z,12.20
2018-05-10T22:11:30.200Z,12.20
2018-05-10T22:13:56.431Z,12.10
2018-05-10T22:16:22.669Z,12.10
2018-05-10T22:18:48.862Z,12.20
2018-05-10T22:21:15.872Z,12.20
2018-05-10T22:23:42.070Z,12.10
2018-05-10T22:26:08.292Z,12.20
2018-05-10T22:28:34.583Z,12.20
2018-05-10T22:31:01.539Z,12.20
2018-05-10T22:33:27.826Z,12.20
2018-05-10T22:35:54.026Z,12.20
2018-05-10T22:38:20.218Z,12.20
2018-05-10T22:40:47.177Z,12.20
2018-05-10T22:43:13.411Z,12.20
2018-05-10T22:45:39.659Z,12.20
2018-05-10T22:48:05.868Z,12.10
2018-05-10T22:50:32.080Z,12.20
2018-05-10T22:52:59.051Z,12.10
2018-05-10T22:55:25.289Z,12.10
2018-05-10T22:57:51.481Z,12.00
2018-05-10T23:00:18.489Z,12.00
2018-05-10T23:02:44.672Z,12.00
2018-05-10T23:05:10.912Z,11.90
2018-05-10T23:07:37.149Z,11.90
2018-05-10T23:10:03.382Z,11.80
2018-05-10T23:12:29.561Z,11.40
2018-05-10T23:14:56.529Z,11.30
2018-05-10T23:17:22.872Z,11.20
2018-05-10T23:19:49.785Z,11.40
2018-05-10T23:22:16.750Z,11.50
2018-05-10T23:24:42.966Z,11.50
2018-05-10T23:27:09.164Z,11.60
2018-05-10T23:29:35.541Z,11.60
2018-05-10T23:32:01.760Z,11.70
2018-05-10T23:34:27.978Z,11.70
2018-05-10T23:36:54.191Z,11.70
2018-05-10T23:39:21.118Z,11.60
2018-05-10T23:41:47.301Z,11.60
2018-05-10T23:44:13.485Z,11.60
2018-05-10T23:46:40.455Z,11.70
2018-05-10T23:49:06.654Z,11.60
2018-05-10T23:51:32.919Z,11.60
2018-05-10T23:53:59.142Z,11.70
2018-05-10T23:56:25.346Z,11.60
2018-05-10T23:58:52.287Z,11.60
